Time;durP1;ratioP1;P1;durP2;ratioP2;P2;SDS_P1;SDS_P2;PMS_P1;PMS_P2;Temp;Humidity;BMP_temperature;BMP_pressure;BME280_temperature;BME280_humidity;BME280_pressure;Samples;Min_cycle;Max_cycle;Signal;HPM_P1;HPM_P2
2022/08/14 00:03:26;;;;;;;10.57;6.12;;;;;;;22.15;47.41;99194.16;7631465;32;38023;-75
2022/08/14 00:07:45;;;;;;;9.38;5.57;;;;;;;22.15;47.45;99191.38;7631100;32;37825;-76
2022/08/14 00:12:05;;;;;;;9.05;5.60;;;;;;;22.25;47.08;99182.44;7631637;32;39016;-76
2022/08/14 00:16:38;;;;;;;10.07;6.28;;;;;;;22.24;47.17;99181.66;7631229;32;40808;-76
2022/08/14 00:20:59;;;;;;;9.65;6.18;;;;;;;22.07;47.89;99190.41;7631280;32;37635;-75
2022/08/14 00:25:16;;;;;;;12.18;6.68;;;;;;;22.01;48.65;99189.06;7631264;32;38077;-76
2022/08/14 00:29:32;;;;;;;9.77;6.20;;;;;;;22.09;48.29;99180.56;7631151;32;39498;-75
2022/08/14 00:33:55;;;;;;;;;;;;;;;21.95;48.95;99169.13;7631554;32;39630;-75
2022/08/14 00:38:32;;;;;;;13.20;7.00;;;;;;;22.04;49.08;99157.81;7629904;32;38328;-73
2022/08/14 00:42:49;;;;;;;9.77;6.35;;;;;;;21.79;49.61;99166.44;7617895;32;36932;-75
2022/08/14 00:47:12;;;;;;;10.15;6.53;;;;;;;21.81;49.94;99164.09;7631063;32;38236;-76
2022/08/14 00:51:32;;;;;;;11.82;6.22;;;;;;;21.80;49.85;99167.22;7617540;32;40095;-76
2022/08/14 00:55:56;;;;;;;12.63;7.28;;;;;;;21.71;50.09;99165.47;7630810;32;38770;-75
2022/08/14 01:00:14;;;;;;;10.95;6.20;;;;;;;21.67;50.45;99158.22;7631220;32;37878;-76
2022/08/14 01:04:56;;;;;;;10.82;6.18;;;;;;;21.59;50.54;99173.09;7629668;32;39603;-76
2022/08/14 01:09:12;;;;;;;10.05;6.12;;;;;;;21.55;50.38;99167.47;7630593;32;40882;-75
2022/08/14 01:13:32;;;;;;;10.93;6.87;;;;;;;21.63;50.03;99166.47;7630208;32;38466;-75
2022/08/14 01:22:33;;;;;;;13.25;5.45;;;;;;;21.48;49.80;99164.53;7630390;32;40037;-75
2022/08/14 01:26:50;;;;;;;9.68;5.78;;;;;;;21.53;49.24;99161.47;7630038;32;39956;-75
2022/08/14 01:31:14;;;;;;;9.70;5.95;;;;;;;21.45;49.24;99166.00;7630031;32;38041;-75
2022/08/14 01:35:30;;;;;;;7.93;5.22;;;;;;;21.54;48.97;99165.84;7629541;32;36998;-75
2022/08/14 01:40:07;;;;;;;7.70;4.40;;;;;;;21.57;48.80;99170.69;7629392;32;39773;-75
2022/08/14 01:44:28;;;;;;;8.05;5.22;;;;;;;21.47;49.59;99168.47;7629892;32;39826;-76
2022/08/14 01:48:51;;;;;;;;;;;;;;;21.34;50.37;99174.09;7629864;32;38789;-75
2022/08/14 01:53:08;;;;;;;8.07;4.60;;;;;;;21.32;50.83;99178.37;7633381;32;36660;-75
2022/08/14 01:57:25;;;;;;;9.55;4.80;;;;;;;21.22;51.04;99170.63;7632714;32;39443;-76
2022/08/14 02:02:08;;;;;;;10.13;5.30;;;;;;;21.17;50.79;99169.69;7606543;32;41450;-75
2022/08/14 02:06:34;;;;;;;8.77;5.30;;;;;;;21.13;51.13;99179.13;7615970;32;37636;-75
2022/08/14 02:11:15;;;;;;;8.60;5.32;;;;;;;21.14;51.20;99172.38;7619725;32;37956;-75
2022/08/14 02:15:31;;;;;;;11.77;5.95;;;;;;;21.15;51.09;99176.78;7622008;32;40021;-75
2022/08/14 02:19:49;;;;;;;9.45;6.03;;;;;;;21.10;51.21;99179.81;7632887;32;41023;-76
2022/08/14 02:24:07;;;;;;;11.20;6.12;;;;;;;21.06;51.55;99190.00;7632584;32;38642;-76
2022/08/14 02:28:44;;;;;;;9.45;6.28;;;;;;;20.96;52.57;99189.38;7632256;32;37558;-75
2022/08/14 02:33:14;;;;;;;10.57;6.22;;;;;;;21.06;52.50;99181.69;7632689;32;38855;-76
2022/08/14 02:37:31;;;;;;;9.20;5.68;;;;;;;21.08;52.36;99193.22;7632135;32;40904;-75
2022/08/14 02:42:06;;;;;;;10.40;6.50;;;;;;;20.85;52.89;99191.03;7632487;32;38605;-75
2022/08/14 02:46:29;;;;;;;10.93;6.37;;;;;;;20.75;53.24;99181.31;7632614;32;37443;-75
2022/08/14 02:50:48;;;;;;;9.50;6.10;;;;;;;20.72;53.23;99183.97;7632263;32;39323;-75
2022/08/14 02:55:06;;;;;;;11.32;7.07;;;;;;;20.60;53.58;99182.84;7632290;32;40780;-76
2022/08/14 02:59:28;;;;;;;10.95;6.47;;;;;;;20.50;54.45;99191.66;7631933;32;38546;-76
2022/08/14 03:03:49;;;;;;;9.63;6.60;;;;;;;20.58;53.83;99187.94;7619135;32;37908;-76
2022/08/14 03:08:11;;;;;;;12.18;6.78;;;;;;;20.48;54.06;99182.91;7631755;32;39259;-75
2022/08/14 03:12:31;;;;;;;10.80;6.43;;;;;;;20.48;54.04;99188.44;7631935;32;40921;-75
2022/08/14 03:16:49;;;;;;;10.18;5.62;;;;;;;20.41;53.92;99185.47;7618632;32;37535;-75
2022/08/14 03:21:07;;;;;;;10.15;6.50;;;;;;;20.66;52.79;99182.62;7632008;32;36349;-75
2022/08/14 03:25:23;;;;;;;11.43;6.97;;;;;;;20.71;52.58;99185.13;7631934;32;39404;-75
2022/08/14 03:29:39;;;;;;;9.55;6.05;;;;;;;20.75;52.41;99188.81;7632059;32;40031;-75
2022/08/14 03:33:56;;;;;;;10.57;5.95;;;;;;;20.68;52.64;99186.66;7631967;32;38059;-76
2022/08/14 03:38:17;;;;;;;9.45;6.25;;;;;;;20.66;52.77;99191.72;7631540;32;37182;-75
2022/08/14 03:42:53;;;;;;;8.05;5.57;;;;;;;20.33;54.04;99203.84;7631272;32;40647;-75
2022/08/14 03:47:09;;;;;;;13.18;6.05;;;;;;;20.11;54.53;99202.44;7631794;32;38521;-75
2022/08/14 03:51:30;;;;;;;10.02;6.25;;;;;;;20.18;54.29;99205.41;7631594;32;37899;-75
2022/08/14 03:55:47;;;;;;;10.45;6.57;;;;;;;20.20;54.29;99192.00;7631720;32;37852;-75
2022/08/14 04:00:12;;;;;;;12.13;6.87;;;;;;;20.47;53.40;99186.81;7631778;32;40198;-75
2022/08/14 04:04:48;;;;;;;12.50;6.47;;;;;;;20.27;54.24;99192.22;7631524;32;40261;-75
2022/08/14 04:09:06;;;;;;;11.32;7.03;;;;;;;20.29;53.98;99191.06;7631345;32;38101;-75
2022/08/14 04:13:23;;;;;;;9.80;6.50;;;;;;;20.38;53.84;99194.47;7630339;32;36027;-75
2022/08/14 04:17:46;;;;;;;11.97;7.37;;;;;;;20.17;54.52;99203.78;7631651;32;40253;-75
2022/08/14 04:22:03;;;;;;;10.63;6.47;;;;;;;20.30;54.33;99198.19;7631486;32;40509;-75
2022/08/14 04:26:21;;;;;;;10.00;6.40;;;;;;;20.37;54.31;99203.94;7631399;32;37850;-75
2022/08/14 04:30:57;;;;;;;10.00;6.18;;;;;;;20.40;54.27;99195.75;7631172;32;38545;-75
2022/08/14 04:35:14;;;;;;;11.40;6.50;;;;;;;20.44;54.18;99193.09;7631181;32;40166;-76
2022/08/14 04:44:13;;;;;;;11.50;6.40;;;;;;;20.42;55.05;99212.81;7630841;32;38722;-75
2022/08/14 04:48:50;;;;;;;12.20;6.12;;;;;;;20.45;55.24;99205.75;7630640;32;38229;-75
2022/08/14 04:53:20;;;;;;;10.98;6.25;;;;;;;20.58;54.98;99209.28;7618191;32;39924;-75
2022/08/14 04:57:41;;;;;;;12.77;5.93;;;;;;;20.69;54.79;99207.63;7630921;32;38418;-75
2022/08/14 05:01:59;;;;;;;10.30;5.82;;;;;;;20.65;55.31;99209.50;7630828;32;38707;-75
2022/08/14 05:06:17;;;;;;;11.38;6.28;;;;;;;20.78;55.08;99213.00;7630744;32;37395;-75
2022/08/14 05:10:55;;;;;;;10.05;6.07;;;;;;;20.34;55.73;99221.28;7630567;32;39372;-74
2022/08/14 05:15:12;;;;;;;10.88;5.78;;;;;;;20.66;54.68;99215.84;7630563;32;38849;-76
2022/08/14 05:19:28;;;;;;;12.80;6.12;;;;;;;20.77;55.03;99215.00;7630328;32;37940;-81
2022/08/14 05:23:47;;;;;;;10.95;6.65;;;;;;;20.73;55.31;99210.50;7630553;32;37494;-81
2022/08/14 05:28:17;;;;;;;12.35;6.82;;;;;;;21.10;54.44;99207.53;7619655;32;40340;-81
2022/08/14 05:32:35;;;;;;;11.60;6.53;;;;;;;20.85;55.46;99207.66;7620991;32;39791;-76
2022/08/14 05:36:53;;;;;;;12.07;6.82;;;;;;;20.71;56.47;99212.81;7633411;32;37574;-75
2022/08/14 05:41:18;;;;;;;9.23;6.30;;;;;;;21.03;55.83;99205.38;7633394;32;38050;-75
2022/08/14 05:45:36;;;;;;;9.95;6.37;;;;;;;21.43;54.93;99215.47;7633556;32;40195;-76
2022/08/14 05:49:52;;;;;;;10.90;6.20;;;;;;;21.55;54.98;99217.38;7633032;32;41003;-78
2022/08/14 05:54:09;;;;;;;11.65;5.97;;;;;;;21.68;54.69;99220.84;7633238;32;37667;-74
2022/08/14 05:58:42;;;;;;;12.25;7.22;;;;;;;21.91;54.11;99218.22;7621326;32;37792;-73
2022/08/14 06:02:59;;;;;;;10.55;6.12;;;;;;;22.19;53.81;99200.59;7633042;32;39388;-75
2022/08/14 06:07:21;;;;;;;;;;;;;;;22.40;53.34;99209.37;7633096;32;40674;-75
2022/08/14 06:11:37;;;;;;;18.17;6.72;;;;;;;22.45;53.15;99214.63;7633230;32;38139;-77
2022/08/14 06:15:53;;;;;;;9.75;6.53;;;;;;;22.65;52.97;99211.84;7633116;32;37818;-76
2022/08/14 06:20:11;;;;;;;9.73;6.10;;;;;;;22.96;51.54;99204.50;7633004;32;39921;-76
2022/08/14 06:24:28;;;;;;;14.20;7.28;;;;;;;22.81;52.52;99198.66;7632803;32;38888;-76
2022/08/14 06:28:50;;;;;;;10.70;6.70;;;;;;;23.13;52.08;99197.66;7632572;32;37737;-75
2022/08/14 06:33:07;;;;;;;10.35;6.05;;;;;;;23.48;51.17;99185.53;7633210;32;36743;-76
2022/08/14 06:37:23;;;;;;;13.55;7.30;;;;;;;23.51;51.26;99196.72;7632115;32;39100;-76
2022/08/14 06:41:41;;;;;;;12.98;7.20;;;;;;;23.64;50.56;99194.50;7632668;32;40822;-75
2022/08/14 06:46:14;;;;;;;12.95;6.78;;;;;;;23.91;50.02;99187.00;7632497;32;37851;-75
2022/08/14 06:50:48;;;;;;;11.57;7.20;;;;;;;23.97;50.01;99185.50;7632399;32;36848;-74
2022/08/14 06:55:05;;;;;;;10.35;6.70;;;;;;;24.27;49.01;99187.47;7632421;32;39406;-77
2022/08/14 06:59:22;;;;;;;16.08;7.07;;;;;;;24.15;49.06;99179.34;7632133;32;39038;-75
2022/08/14 07:08:25;;;;;;;9.50;5.72;;;;;;;24.96;47.70;99168.72;7632552;32;37582;-77
2022/08/14 07:12:45;;;;;;;10.10;6.10;;;;;;;24.47;47.39;99168.59;7632279;32;39296;-76
2022/08/14 07:17:19;;;;;;;11.23;6.20;;;;;;;24.90;46.91;99157.91;7631000;32;40082;-76
2022/08/14 07:21:36;;;;;;;11.90;6.28;;;;;;;24.99;46.71;99165.97;7634240;32;38094;-78
2022/08/14 07:25:55;;;;;;;16.55;6.30;;;;;;;25.17;46.55;99163.34;7631954;32;37901;-77
2022/08/14 07:30:13;;;;;;;11.95;6.05;;;;;;;25.29;46.76;99157.47;7632292;32;39428;-80
2022/08/14 07:34:49;;;;;;;11.80;5.43;;;;;;;25.80;46.10;99158.62;7620266;32;43018;-79
2022/08/14 07:39:05;;;;;;;9.45;5.60;;;;;;;25.79;45.51;99162.59;7630957;32;37728;-79
2022/08/14 07:43:28;;;;;;;12.75;5.85;;;;;;;25.62;46.29;99160.50;7628505;32;37128;-76
2022/08/14 07:47:44;;;;;;;10.27;6.35;;;;;;;26.10;44.78;99152.03;7628747;32;39999;-78
2022/08/14 07:52:02;;;;;;;8.60;5.28;;;;;;;26.23;45.10;99142.09;7629234;32;41425;-78
2022/08/14 07:56:18;;;;;;;15.25;8.18;;;;;;;26.50;44.06;99150.16;7630123;32;38646;-77
2022/08/14 08:00:55;;;;;;;17.05;8.93;;;;;;;26.11;43.95;99156.41;7631569;32;37544;-78
2022/08/14 08:05:13;;;;;;;13.35;7.28;;;;;;;25.88;45.58;99158.66;7631786;32;39412;-77
2022/08/14 08:09:34;;;;;;;8.93;5.60;;;;;;;26.69;43.50;99145.44;7631854;32;39697;-79
2022/08/14 08:13:51;;;;;;;13.30;5.68;;;;;;;26.83;43.66;99139.06;7631215;32;38665;-79
2022/08/14 08:18:10;;;;;;;9.90;5.53;;;;;;;27.28;41.15;99129.09;7631842;32;36290;-80
2022/08/14 08:22:45;;;;;;;13.68;5.97;;;;;;;27.50;40.85;99129.09;7631783;32;39309;-76
2022/08/14 08:27:15;;;;;;;9.85;5.95;;;;;;;27.59;40.60;99129.47;7631762;32;39936;-79
2022/08/14 08:31:48;;;;;;;21.92;6.12;;;;;;;27.62;40.34;99123.06;7631513;32;38723;-80
2022/08/14 08:36:10;;;;;;;9.40;5.32;;;;;;;28.02;40.35;99123.75;7631288;32;38092;-77
2022/08/14 08:40:36;;;;;;;8.93;5.68;;;;;;;28.61;38.32;99120.28;7631529;32;40285;-78
2022/08/14 08:44:57;;;;;;;8.93;5.47;;;;;;;28.16;38.33;99127.72;7630985;32;40838;-78
2022/08/14 08:49:13;;;;;;;12.50;5.70;;;;;;;28.89;38.30;99123.28;7632823;32;37722;-78
2022/08/14 08:53:32;;;;;;;12.18;6.80;;;;;;;28.73;38.54;99116.19;7594875;32;37105;-79
2022/08/14 08:57:54;;;;;;;10.75;6.75;;;;;;;28.98;37.90;99123.63;7623249;32;39450;-78
2022/08/14 09:02:11;;;;;;;9.55;5.72;;;;;;;29.06;37.50;99111.13;7610284;32;40826;-76
2022/08/14 09:06:27;;;;;;;11.07;5.60;;;;;;;28.93;36.06;99108.03;7604982;32;38603;-77
2022/08/14 09:11:06;;;;;;;10.13;5.72;;;;;;;29.54;37.07;99104.66;7624893;32;37737;-78
2022/08/14 09:15:40;;;;;;;18.02;6.25;;;;;;;29.03;36.53;99106.34;7617205;32;37923;-78
2022/08/14 09:19:58;;;;;;;8.30;5.57;;;;;;;29.41;36.88;99098.00;7630307;32;39655;-79
2022/08/14 09:24:17;;;;;;;9.95;6.18;;;;;;;29.57;35.88;99097.44;7629840;32;38052;-78
2022/08/14 09:28:47;;;;;;;9.15;5.65;;;;;;;29.72;34.91;99090.44;7630259;32;37909;-79
2022/08/14 09:33:19;;;;;;;10.85;6.03;;;;;;;29.96;35.29;99084.97;7629953;32;40029;-76
2022/08/14 09:38:05;;;;;;;12.37;6.10;;;;;;;29.43;35.75;99084.34;7629902;32;39894;-79
2022/08/14 09:42:49;;;;;;;10.23;5.62;;;;;;;29.98;35.12;99084.53;7616271;32;38119;-76
2022/08/14 09:47:06;;;;;;;11.27;6.40;;;;;;;29.62;34.31;99084.97;7617485;32;37996;-77
2022/08/14 09:51:24;;;;;;;9.13;5.53;;;;;;;29.11;36.13;99084.63;7624902;32;39410;-78
2022/08/14 09:55:58;;;;;;;13.07;6.00;;;;;;;29.73;34.54;99074.38;7591257;32;39838;-76
2022/08/14 10:00:18;;;;;;;13.35;6.85;;;;;;;29.42;35.51;99074.31;7603699;32;37943;-77
2022/08/14 10:04:46;;;;;;;11.95;6.22;;;;;;;29.26;35.60;99085.34;7591888;32;37340;-77
2022/08/14 10:09:05;;;;;;;9.55;6.25;;;;;;;29.58;34.64;99077.38;7603484;32;39624;-77
2022/08/14 10:13:31;;;;;;;9.48;5.50;;;;;;;30.03;35.17;99065.22;7614951;32;40585;-77
2022/08/14 10:18:13;;;;;;;7.82;5.20;;;;;;;30.24;33.72;99052.88;7632330;32;37784;-79
2022/08/14 10:22:33;;;;;;;9.48;5.40;;;;;;;30.96;30.96;99049.00;7632783;32;37116;-78
2022/08/14 10:27:22;;;;;;;7.57;5.50;;;;;;;31.40;29.85;99061.03;7621315;32;39613;-78
2022/08/14 10:31:38;;;;;;;14.32;5.30;;;;;;;31.82;29.20;99061.47;7633096;32;39877;-78
2022/08/14 10:36:03;;;;;;;9.87;5.27;;;;;;;31.99;29.54;99058.69;7632957;32;37677;-77
2022/08/14 10:40:31;;;;;;;10.13;5.50;;;;;;;32.22;28.30;99057.00;7618995;32;37649;-78
2022/08/14 10:45:00;;;;;;;8.25;4.80;;;;;;;32.22;28.71;99055.00;7631866;32;39762;-78
2022/08/14 10:49:21;;;;;;;9.85;5.60;;;;;;;32.07;28.36;99053.72;7632310;32;40004;-76
2022/08/14 10:53:38;;;;;;;9.75;5.30;;;;;;;31.39;29.67;99062.28;7632473;32;38851;-78
2022/08/14 10:57:56;;;;;;;8.35;5.62;;;;;;;31.03;29.55;99056.53;7632529;32;37197;-77
2022/08/14 11:02:19;;;;;;;9.15;5.28;;;;;;;30.57;30.43;99061.66;7632553;32;39287;-78
2022/08/14 11:06:57;;;;;;;15.75;5.70;;;;;;;30.83;30.72;99056.41;7631485;32;41237;-78
2022/08/14 11:11:13;;;;;;;8.38;5.28;;;;;;;31.35;29.91;99058.72;7631978;32;38691;-77
2022/08/14 11:15:32;;;;;;;9.70;5.50;;;;;;;31.01;29.44;99053.31;7632151;32;37199;-78
2022/08/14 11:19:50;;;;;;;7.50;5.05;;;;;;;31.42;29.14;99049.34;7631294;32;39272;-78
2022/08/14 11:24:11;;;;;;;10.00;5.05;;;;;;;31.42;29.28;99043.72;7617949;32;40010;-77
2022/08/14 11:28:49;;;;;;;7.80;5.47;;;;;;;31.52;28.38;99028.66;7615274;32;38207;-77
2022/08/14 11:33:06;;;;;;;9.85;5.10;;;;;;;31.85;28.09;99031.59;7627105;32;37273;-77
2022/08/14 11:37:24;;;;;;;7.32;4.85;;;;;;;32.33;27.86;99029.38;7618951;32;38432;-77
2022/08/14 11:41:56;;;;;;;11.57;4.87;;;;;;;32.67;26.55;99026.16;7632256;32;40803;-75
2022/08/14 11:46:15;;;;;;;11.00;4.93;;;;;;;32.43;27.39;99019.06;7627360;32;154813;-76
2022/08/14 11:50:46;;;;;;;8.95;5.40;;;;;;;31.16;27.74;99026.50;7619927;32;37179;-76
2022/08/14 11:55:11;;;;;;;;;;;;;;;31.43;27.58;99023.56;7632389;32;39304;-77
2022/08/14 11:59:31;;;;;;;9.30;5.15;;;;;;;31.96;26.61;99017.28;7632258;32;40971;-76
2022/08/14 12:03:48;;;;;;;8.68;4.75;;;;;;;32.04;26.45;99001.78;7632017;32;37935;-77
2022/08/14 12:08:12;;;;;;;6.70;4.55;;;;;;;32.96;26.72;98994.37;7631164;32;37190;-77
2022/08/14 12:12:33;;;;;;;9.48;5.15;;;;;;;33.74;22.87;98992.63;7617915;32;40990;-76
2022/08/14 12:17:07;;;;;;;6.78;4.47;;;;;;;33.98;22.29;98987.47;7631356;32;39963;-76
2022/08/14 12:21:25;;;;;;;7.10;4.53;;;;;;;34.14;21.93;98978.09;7631688;32;37930;-77
2022/08/14 12:25:47;;;;;;;8.00;4.37;;;;;;;34.46;21.99;98967.78;7631430;32;36903;-77
2022/08/14 12:30:44;;;;;;;9.60;4.30;;;;;;;34.82;20.86;98963.78;7631604;32;39271;-77
2022/08/14 12:35:08;;;;;;;6.95;4.75;;;;;;;34.65;21.66;98958.25;7629252;32;40033;-77
2022/08/14 12:39:25;;;;;;;10.10;4.75;;;;;;;34.34;22.23;98953.22;7608317;32;38516;-78
2022/08/14 12:43:47;;;;;;;8.02;4.72;;;;;;;33.33;22.57;98971.63;7614524;32;37454;-79
2022/08/14 12:48:04;;;;;;;;;;;;;;;32.64;24.30;98967.00;7630939;32;38981;-78
2022/08/14 12:52:44;;;;;;;7.50;4.35;;;;;;;33.20;23.40;98961.09;7631029;32;41457;-78
2022/08/14 12:57:22;;;;;;;7.55;4.12;;;;;;;32.96;23.72;98957.69;7630525;32;38301;-78
2022/08/14 13:01:39;;;;;;;10.80;5.05;;;;;;;33.57;23.15;98960.84;7631122;32;37363;-78
2022/08/14 13:06:16;;;;;;;8.75;4.47;;;;;;;33.52;23.05;98952.91;7630486;32;40413;-79
2022/08/14 13:10:33;;;;;;;7.75;4.53;;;;;;;34.38;22.54;98939.75;7630880;32;40067;-78
2022/08/14 13:15:12;;;;;;;8.15;4.30;;;;;;;34.49;21.35;98930.88;7630841;32;38453;-79
2022/08/14 13:19:29;;;;;;;7.00;3.97;;;;;;;35.64;20.01;98932.44;7630539;32;37972;-79
2022/08/14 13:23:46;;;;;;;7.20;4.78;;;;;;;36.08;19.41;98931.53;7617010;32;40257;-79
2022/08/14 13:28:04;;;;;;;5.93;3.95;;;;;;;34.75;20.41;98931.63;7629637;32;39994;-79
2022/08/14 13:32:27;;;;;;;7.87;4.40;;;;;;;35.50;20.02;98933.00;7630619;32;39161;-77
2022/08/14 13:36:44;;;;;;;7.55;4.30;;;;;;;35.51;19.95;98926.87;7630142;32;37817;-77
2022/08/14 13:41:16;;;;;;;7.30;4.62;;;;;;;35.05;20.55;98920.06;7630311;32;39253;-76
2022/08/14 13:45:32;;;;;;;6.03;4.30;;;;;;;35.16;19.86;98909.16;7617997;32;40864;-77
2022/08/14 13:50:11;;;;;;;7.50;4.25;;;;;;;34.53;20.59;98899.62;7632605;32;38112;-77
2022/08/14 13:54:31;;;;;;;9.98;4.62;;;;;;;35.08;19.65;98897.31;7620065;32;36980;-76
2022/08/14 13:58:48;;;;;;;6.68;4.30;;;;;;;35.16;19.78;98898.59;7620333;32;40066;-78
2022/08/14 14:03:06;;;;;;;10.50;4.60;;;;;;;34.53;20.98;98896.81;7619959;32;40917;-77
2022/08/14 14:07:23;;;;;;;7.70;4.43;;;;;;;35.17;20.38;98894.53;7633231;32;36812;-78
2022/08/14 14:11:46;;;;;;;7.18;4.50;;;;;;;34.84;20.97;98888.47;7633171;32;37114;-79
2022/08/14 14:16:11;;;;;;;6.40;4.23;;;;;;;34.99;20.55;98883.84;7632575;32;39115;-78
2022/08/14 14:20:44;;;;;;;6.78;4.22;;;;;;;34.70;20.37;98881.22;7620970;32;40792;-78
2022/08/14 14:25:00;;;;;;;7.28;4.25;;;;;;;34.52;21.42;98878.28;7631782;32;38224;-77
2022/08/14 14:29:18;;;;;;;7.05;4.30;;;;;;;34.35;20.94;98881.25;7632751;32;37363;-80
2022/08/14 14:33:47;;;;;;;7.07;4.18;;;;;;;33.78;22.00;98874.63;7633047;32;39643;-78
2022/08/14 14:38:05;;;;;;;7.15;4.10;;;;;;;33.95;21.19;98869.66;7632750;32;40545;-78
2022/08/14 14:42:24;;;;;;;5.80;4.10;;;;;;;33.79;21.72;98867.72;7632887;32;37559;-78
2022/08/14 14:46:48;;;;;;;5.95;3.80;;;;;;;34.23;21.30;98865.09;7632558;32;37128;-78
2022/08/14 14:51:05;;;;;;;7.30;4.07;;;;;;;33.99;21.19;98859.78;7632374;32;40304;-79
2022/08/14 14:55:21;;;;;;;18.92;4.85;;;;;;;33.79;21.49;98859.25;7619224;32;39978;-78
2022/08/14 14:59:41;;;;;;;8.90;4.35;;;;;;;33.82;21.33;98856.34;7632378;32;35986;-78
2022/08/14 15:03:58;;;;;;;8.85;4.62;;;;;;;33.61;21.98;98854.16;7632640;32;36743;-79
2022/08/14 15:08:19;;;;;;;5.47;3.78;;;;;;;33.45;22.09;98861.47;7632585;32;39547;-78
2022/08/14 15:12:57;;;;;;;11.93;4.55;;;;;;;33.23;22.68;98872.63;7632208;32;40054;-78
2022/08/14 15:17:20;;;;;;;6.32;3.87;;;;;;;33.20;23.09;98861.44;7632423;32;38682;-78
2022/08/14 15:21:37;;;;;;;6.43;3.80;;;;;;;33.10;22.91;98866.94;7632569;32;36160;-78
2022/08/14 15:25:55;;;;;;;8.02;4.00;;;;;;;33.28;23.04;98874.91;7632503;32;39401;-78
2022/08/14 15:30:13;;;;;;;9.30;4.35;;;;;;;33.40;23.32;98869.72;7631990;32;40008;-79
2022/08/14 15:34:44;;;;;;;5.55;4.05;;;;;;;33.05;23.31;98875.97;7632287;32;39279;-78
2022/08/14 15:39:07;;;;;;;6.93;3.67;;;;;;;32.57;23.59;98870.00;7632264;32;37228;-78
2022/08/14 15:43:24;;;;;;;9.75;3.90;;;;;;;33.02;22.50;98876.06;7632110;32;39407;-79
2022/08/14 15:47:46;;;;;;;6.20;3.55;;;;;;;33.03;23.51;98863.53;7632129;32;39770;-79
2022/08/14 15:52:06;;;;;;;9.98;3.83;;;;;;;32.57;23.35;98870.00;7631553;32;37984;-78
2022/08/14 15:56:25;;;;;;;7.07;3.67;;;;;;;32.59;24.09;98863.91;7631751;32;36363;-79
2022/08/14 16:05:54;;;;;;;5.97;3.30;;;;;;;32.49;23.98;98857.31;7631184;32;41355;-78
2022/08/14 16:10:11;;;;;;;5.37;3.17;;;;;;;32.67;22.77;98861.72;7631500;32;38356;-80
2022/08/14 16:14:45;;;;;;;6.32;3.75;;;;;;;33.01;21.22;98855.50;7631226;32;37422;-78
2022/08/14 16:19:05;;;;;;;7.75;3.92;;;;;;;32.61;22.52;98850.19;7630488;32;39157;-78
2022/08/14 16:23:28;;;;;;;5.25;3.65;;;;;;;32.80;22.58;98851.25;7631262;32;39990;-79
2022/08/14 16:27:51;;;;;;;5.85;3.70;;;;;;;33.07;21.51;98853.72;7630910;32;38003;-78
2022/08/14 16:32:12;;;;;;;6.95;3.83;;;;;;;33.09;21.84;98851.22;7631528;32;37133;-79
2022/08/14 16:36:48;;;;;;;7.62;3.87;;;;;;;33.11;21.98;98854.38;7631231;32;39676;-79
2022/08/14 16:41:25;;;;;;;8.60;3.53;;;;;;;32.93;22.62;98854.94;7618124;32;40701;-78
2022/08/14 16:45:44;;;;;;;8.38;3.97;;;;;;;32.87;22.29;98856.69;7631046;32;38142;-80
2022/08/14 16:50:10;;;;;;;5.53;3.72;;;;;;;32.96;22.78;98853.25;7630178;32;37112;-79
2022/08/14 16:54:31;;;;;;;9.13;4.00;;;;;;;32.90;23.10;98855.81;7630133;32;39664;-79
2022/08/14 16:59:03;;;;;;;9.82;4.35;;;;;;;32.78;23.95;98865.03;7630428;32;40988;-81
2022/08/14 17:03:19;;;;;;;9.25;4.65;;;;;;;32.51;25.17;98868.97;7618897;32;37599;-81
2022/08/14 17:07:36;;;;;;;8.45;4.53;;;;;;;32.39;25.81;98861.22;7617673;32;37112;-76
2022/08/14 17:12:10;;;;;;;9.20;4.60;;;;;;;32.06;26.60;98868.91;7630660;32;40063;-76
2022/08/14 17:16:45;;;;;;;6.68;4.25;;;;;;;31.94;26.96;98870.38;7630622;32;40827;-77
2022/08/14 17:21:16;;;;;;;7.87;4.70;;;;;;;31.69;27.42;98870.97;7629821;32;37524;-76
2022/08/14 17:25:38;;;;;;;7.05;4.50;;;;;;;31.54;28.28;98871.28;7617962;32;37246;-75
2022/08/14 17:30:07;;;;;;;6.97;4.78;;;;;;;31.44;28.22;98869.47;7630391;32;39471;-76
2022/08/14 17:34:52;;;;;;;9.35;4.72;;;;;;;31.35;28.63;98877.75;7629808;32;40359;-75
2022/08/14 17:39:14;;;;;;;12.45;4.68;;;;;;;31.32;28.59;98875.78;7630269;32;38565;-77
2022/08/14 17:43:33;;;;;;;7.35;4.47;;;;;;;31.16;29.42;98885.75;7630202;32;37197;-74
2022/08/14 17:47:58;;;;;;;30.20;18.45;;;;;;;31.15;28.97;98887.00;7629906;32;39363;-75
2022/08/14 17:52:17;;;;;;;30.58;20.90;;;;;;;31.02;28.69;98884.03;7630019;32;40023;-76
2022/08/14 17:56:51;;;;;;;20.95;12.88;;;;;;;30.98;29.12;98902.25;7629699;32;37891;-76
2022/08/14 18:01:11;;;;;;;17.23;7.68;;;;;;;30.83;29.61;98901.69;7629535;32;37047;-76
2022/08/14 18:05:28;;;;;;;40.70;7.87;;;;;;;30.73;29.92;98885.81;7629619;32;39889;-76
2022/08/14 18:10:07;;;;;;;20.30;6.57;;;;;;;30.56;30.29;98893.34;7628880;32;40126;-74
2022/08/14 18:14:45;;;;;;;13.15;4.95;;;;;;;30.38;30.51;98897.28;7615607;32;38376;-76
2022/08/14 18:19:08;;;;;;;9.52;5.40;;;;;;;30.22;30.98;98892.28;7616721;32;37955;-76
2022/08/14 18:23:26;;;;;;;10.52;4.78;;;;;;;29.98;31.66;98893.47;7628820;32;37977;-74
2022/08/14 18:27:45;;;;;;;8.65;5.07;;;;;;;29.91;31.97;98883.16;7628949;32;40093;-76
2022/08/14 18:32:22;;;;;;;8.90;5.65;;;;;;;29.88;32.02;98884.81;7590030;32;38640;-75
2022/08/14 18:36:55;;;;;;;17.67;6.22;;;;;;;29.74;32.10;98896.22;7595494;32;37082;-74
2022/08/14 18:41:28;;;;;;;10.98;5.93;;;;;;;29.45;32.79;98891.00;7615008;32;40103;-72
2022/08/14 18:45:59;;;;;;;8.55;5.32;;;;;;;29.44;32.97;98886.59;7632769;32;39622;-73
2022/08/14 18:50:24;;;;;;;7.47;4.72;;;;;;;29.52;32.90;98890.91;7631534;32;38900;-75
2022/08/14 18:54:45;;;;;;;16.45;4.75;;;;;;;29.19;33.47;98889.75;7632863;32;37340;-75
2022/08/14 18:59:38;;;;;;;8.48;4.82;;;;;;;29.10;33.21;98887.44;7632927;32;39378;-75
2022/08/14 19:03:57;;;;;;;15.27;4.87;;;;;;;28.96;33.25;98896.00;7632594;32;40104;-74
2022/08/14 19:08:25;;;;;;;7.47;4.75;;;;;;;28.74;33.62;98896.25;7632768;32;36186;-74
2022/08/14 19:12:56;;;;;;;12.93;4.80;;;;;;;28.62;33.96;98896.78;7632288;32;36852;-74
2022/08/14 19:17:43;;;;;;;14.00;5.22;;;;;;;28.66;33.86;98891.91;7632013;32;40117;-78
2022/08/14 19:22:29;;;;;;;15.50;5.62;;;;;;;28.53;34.19;98899.22;7631457;32;40236;-76
2022/08/14 19:26:48;;;;;;;9.60;4.43;;;;;;;28.26;34.81;98899.88;7632162;32;37538;-76
2022/08/14 19:31:24;;;;;;;9.10;5.00;;;;;;;28.16;34.94;98897.97;7632056;32;37075;-75
2022/08/14 19:35:52;;;;;;;6.47;4.47;;;;;;;28.00;35.22;98893.69;7606471;32;37678;-75
2022/08/14 19:40:36;;;;;;;7.82;4.68;;;;;;;27.89;35.41;98893.72;7605957;32;40018;-75
2022/08/14 19:44:54;;;;;;;7.57;4.95;;;;;;;27.72;35.63;98895.44;7614315;32;37681;-76
2022/08/14 19:49:13;;;;;;;8.77;4.60;;;;;;;27.66;35.52;98913.88;7632031;32;36011;-76
2022/08/14 19:53:56;;;;;;;8.65;4.85;;;;;;;27.65;35.81;98908.69;7631961;32;40407;-76
2022/08/14 19:58:14;;;;;;;8.55;5.15;;;;;;;27.46;36.63;98901.59;7631814;32;41013;-75
2022/08/14 20:02:31;;;;;;;8.82;5.03;;;;;;;27.45;36.53;98898.00;7631515;32;38423;-75
2022/08/14 20:06:53;;;;;;;7.37;4.70;;;;;;;27.47;36.35;98908.78;7631336;32;37830;-75
2022/08/14 20:11:34;;;;;;;9.23;4.90;;;;;;;27.28;36.86;98908.06;7618527;32;39513;-75
2022/08/14 20:16:10;;;;;;;8.95;5.12;;;;;;;27.33;36.63;98918.03;7631169;32;41283;-75
2022/08/14 20:20:37;;;;;;;9.18;4.95;;;;;;;26.97;37.58;98915.34;7631203;32;37872;-75
2022/08/14 20:25:15;;;;;;;7.00;4.68;;;;;;;26.78;38.09;98913.78;7631263;32;37083;-71
2022/08/14 20:29:31;;;;;;;8.10;5.00;;;;;;;26.72;38.41;98915.41;7631736;32;39624;-75
2022/08/14 20:34:36;;;;;;;10.07;5.55;;;;;;;26.59;38.73;98912.19;7631177;32;40981;-76
2022/08/14 20:38:58;;;;;;;10.77;4.87;;;;;;;26.75;38.36;98912.63;7619385;32;37679;-75
2022/08/14 20:47:59;;;;;;;8.40;4.93;;;;;;;26.56;39.03;98916.63;7631605;32;39740;-75
2022/08/14 20:52:16;;;;;;;8.27;5.00;;;;;;;26.26;39.67;98919.03;7630493;32;39920;-76
2022/08/14 20:56:41;;;;;;;7.82;5.07;;;;;;;26.18;39.57;98909.81;7630189;32;37907;-74
2022/08/14 21:01:19;;;;;;;7.75;5.05;;;;;;;26.43;38.97;98923.81;7631046;32;36737;-75
2022/08/14 21:05:36;;;;;;;7.97;4.82;;;;;;;26.26;39.28;98925.41;7621027;32;39995;-75